createdAt,value
2018-11-06T00:00:56.257Z,9.20
2018-11-06T00:03:30.605Z,9.50
2018-11-06T00:08:28.605Z,9.00
2018-11-06T00:13:26.634Z,9.40
2018-11-06T00:18:24.605Z,9.70
2018-11-06T00:20:53.689Z,9.60
2018-11-06T00:31:49.763Z,9.40
2018-11-06T00:34:19.085Z,9.90
2018-11-06T00:36:48.290Z,8.60
2018-11-06T00:39:18.488Z,9.00
2018-11-06T00:49:49.443Z,9.10
2018-11-06T00:52:18.672Z,9.10
2018-11-06T00:54:47.886Z,8.70
2018-11-06T00:59:46.105Z,8.80
2018-11-06T01:04:44.257Z,8.90
2018-11-06T01:09:42.375Z,9.20
2018-11-06T01:14:40.488Z,8.50
2018-11-06T01:19:38.628Z,8.60
2018-11-06T01:24:36.772Z,8.90
2018-11-06T01:29:35.203Z,8.90
2018-11-06T01:32:04.415Z,9.20
2018-11-06T01:37:37.512Z,8.90
2018-11-06T01:40:09.133Z,8.50
2018-11-06T01:45:10.093Z,8.80
2018-11-06T01:52:40.005Z,8.80
2018-11-06T01:57:39.278Z,9.00
2018-11-06T02:02:39.631Z,8.60
2018-11-06T02:07:39.195Z,9.30
2018-11-06T02:10:10.146Z,8.60
2018-11-06T02:17:38.691Z,8.50
2018-11-06T02:27:35.456Z,8.40
2018-11-06T02:30:05.166Z,8.20
2018-11-06T02:32:34.458Z,8.40
2018-11-06T02:42:30.594Z,8.90
2018-11-06T02:44:59.914Z,8.80
2018-11-06T02:52:26.996Z,8.50
2018-11-06T02:57:25.163Z,8.30
2018-11-06T02:59:54.364Z,8.90
2018-11-06T03:04:52.539Z,8.90
2018-11-06T03:09:50.721Z,8.70
2018-11-06T03:14:48.848Z,9.00
2018-11-06T03:24:44.892Z,8.80
2018-11-06T03:29:43.153Z,8.90
2018-11-06T03:34:41.369Z,8.80
2018-11-06T03:39:39.499Z,8.40
2018-11-06T03:44:38.246Z,8.80
2018-11-06T03:47:07.458Z,8.40
2018-11-06T03:59:32.868Z,8.40
2018-11-06T04:02:02.116Z,8.00
2018-11-06T04:07:00.427Z,8.20
2018-11-06T04:11:58.604Z,8.20
2018-11-06T04:16:56.730Z,8.30
2018-11-06T04:21:54.869Z,8.00
2018-11-06T04:26:52.995Z,8.50
2018-11-06T04:29:22.199Z,8.00
2018-11-06T04:31:51.374Z,8.20
2018-11-06T04:34:20.560Z,8.40
2018-11-06T04:39:18.675Z,8.30
2018-11-06T04:44:16.810Z,7.80
2018-11-06T04:49:15.726Z,8.90
2018-11-06T04:51:44.887Z,8.40
2018-11-06T04:56:42.990Z,7.90
2018-11-06T05:01:41.123Z,8.50
2018-11-06T05:06:39.391Z,7.80
2018-11-06T05:21:34.252Z,7.90
2018-11-06T05:24:03.431Z,8.50
2018-11-06T05:26:32.591Z,8.70
2018-11-06T05:29:01.879Z,7.80
2018-11-06T05:34:00.104Z,8.30
2018-11-06T06:03:57.098Z,8.30
2018-11-06T06:06:27.303Z,8.00
2018-11-06T06:08:56.525Z,8.10
2018-11-06T06:11:27.464Z,8.30
2018-11-06T06:13:56.940Z,8.30
2018-11-06T06:18:55.515Z,8.10
2018-11-06T06:21:24.740Z,8.20
2018-11-06T06:28:53.803Z,8.20
2018-11-06T06:31:23.064Z,7.90
2018-11-06T06:33:52.303Z,8.60
2018-11-06T06:36:21.463Z,8.60
2018-11-06T06:41:19.689Z,8.30
2018-11-06T06:46:17.752Z,8.40
2018-11-06T06:51:15.681Z,8.80
2018-11-06T06:56:13.722Z,8.40
2018-11-06T07:01:11.723Z,8.40
2018-11-06T07:06:10.269Z,8.70
2018-11-06T07:11:08.250Z,8.90
2018-11-06T07:16:07.246Z,9.00
2018-11-06T07:18:36.407Z,9.60
2018-11-06T07:23:34.825Z,9.40
2018-11-06T07:28:33.207Z,9.00
2018-11-06T07:31:02.594Z,9.00
2018-11-06T07:36:07.285Z,10.30
2018-11-06T07:38:36.369Z,9.80
2018-11-06T07:43:34.530Z,9.50
2018-11-06T07:48:32.626Z,10.00
2018-11-06T07:51:01.735Z,10.20
2018-11-06T07:53:30.891Z,9.80
2018-11-06T07:55:59.981Z,10.10
2018-11-06T07:58:29.045Z,10.20
2018-11-06T08:03:27.030Z,10.60
2018-11-06T08:08:25.021Z,10.80
2018-11-06T08:10:54.109Z,10.50
2018-11-06T08:13:23.313Z,10.80
2018-11-06T08:18:21.306Z,10.90
2018-11-06T08:20:50.454Z,10.80
2018-11-06T08:23:19.561Z,11.00
2018-11-06T08:28:17.549Z,10.80
2018-11-06T08:30:46.861Z,11.20
2018-11-06T08:33:15.778Z,11.20
2018-11-06T08:35:44.973Z,10.70
2018-11-06T08:38:14.057Z,11.00
2018-11-06T08:45:40.873Z,11.00
2018-11-06T09:00:34.437Z,11.40
2018-11-06T09:05:32.445Z,11.50
2018-11-06T09:08:01.575Z,11.50
2018-11-06T09:22:55.050Z,11.60
2018-11-06T09:30:21.896Z,12.30
2018-11-06T09:32:51.046Z,12.60
2018-11-06T09:37:49.018Z,12.50
2018-11-06T09:40:19.316Z,12.10
2018-11-06T09:45:17.413Z,12.50
2018-11-06T09:58:47.870Z,12.60
2018-11-06T10:03:45.959Z,12.70
2018-11-06T10:08:44.131Z,13.20
2018-11-06T10:13:42.226Z,12.90
2018-11-06T10:28:38.398Z,13.20
2018-11-06T10:33:36.775Z,13.30
2018-11-06T10:38:35.404Z,13.40
2018-11-06T10:41:04.644Z,13.20
2018-11-06T10:46:02.781Z,13.30
2018-11-06T10:51:01.035Z,13.80
2018-11-06T10:55:59.444Z,13.70
2018-11-06T10:58:28.711Z,14.70
2018-11-06T11:01:03.240Z,14.20
2018-11-06T11:11:07.429Z,14.30
2018-11-06T11:16:06.024Z,14.10
2018-11-06T11:18:35.352Z,13.90
2018-11-06T11:23:33.692Z,14.70
2018-11-06T11:28:31.984Z,14.70
2018-11-06T11:33:30.251Z,14.70
2018-11-06T11:35:59.440Z,15.70
2018-11-06T11:38:28.645Z,15.20
2018-11-06T11:40:58.200Z,15.20
2018-11-06T11:45:56.569Z,15.00
2018-11-06T11:50:54.791Z,15.50
2018-11-06T11:55:53.331Z,15.30
2018-11-06T11:58:22.627Z,15.60
2018-11-06T12:03:20.803Z,15.80
2018-11-06T12:08:19.111Z,15.50
2018-11-06T12:10:48.351Z,15.40
2018-11-06T12:15:46.494Z,15.40
2018-11-06T12:18:15.739Z,15.80
2018-11-06T12:20:44.871Z,15.50
2018-11-06T12:25:43.117Z,15.30
2018-11-06T12:30:41.079Z,15.40
2018-11-06T12:35:39.596Z,15.60
2018-11-06T12:38:08.892Z,15.80
2018-11-06T12:43:07.201Z,15.60
2018-11-06T12:45:36.784Z,16.10
2018-11-06T12:50:35.405Z,16.00
2018-11-06T12:58:03.503Z,16.30
2018-11-06T13:03:02.094Z,16.30
2018-11-06T13:08:00.356Z,16.40
2018-11-06T13:10:29.611Z,16.20
2018-11-06T13:12:58.789Z,16.10
2018-11-06T13:17:57.569Z,16.50
2018-11-06T13:20:26.843Z,16.50
2018-11-06T13:25:25.205Z,16.30
2018-11-06T13:27:54.359Z,16.20
2018-11-06T13:32:53.471Z,16.40
2018-11-06T13:35:22.783Z,16.40
2018-11-06T13:40:21.047Z,16.90
2018-11-06T13:42:50.415Z,16.70
2018-11-06T13:45:21.405Z,16.70
2018-11-06T13:52:56.896Z,16.80
2018-11-06T14:02:53.104Z,16.60
2018-11-06T14:10:20.427Z,16.80
2018-11-06T14:25:15.654Z,16.60
2018-11-06T14:37:52.091Z,16.50
2018-11-06T14:42:50.148Z,16.50
2018-11-06T14:52:46.886Z,17.10
2018-11-06T15:02:46.625Z,16.60
2018-11-06T15:05:16.157Z,17.00
2018-11-06T15:10:14.309Z,16.00
2018-11-06T15:15:18.853Z,16.20
2018-11-06T15:20:20.297Z,16.20
2018-11-06T15:22:49.430Z,16.00
2018-11-06T15:32:46.901Z,15.70
2018-11-06T15:40:17.729Z,15.90
2018-11-06T15:42:46.960Z,15.20
2018-11-06T15:50:16.703Z,15.40
2018-11-06T15:55:15.636Z,15.10
2018-11-06T16:00:17.508Z,15.30
2018-11-06T16:05:16.077Z,15.10
2018-11-06T16:10:16.858Z,14.90
2018-11-06T16:12:46.452Z,14.80
2018-11-06T16:17:44.605Z,14.90
2018-11-06T16:22:44.253Z,14.90
2018-11-06T16:30:16.993Z,14.40
2018-11-06T16:32:46.239Z,14.20
2018-11-06T16:35:16.553Z,14.60
2018-11-06T16:52:45.285Z,13.60
2018-11-06T16:55:14.946Z,14.00
2018-11-06T17:00:15.328Z,13.60
2018-11-06T17:05:14.617Z,13.80
2018-11-06T17:07:44.111Z,13.60
2018-11-06T17:10:14.277Z,13.50
2018-11-06T17:20:16.758Z,13.50
2018-11-06T17:22:45.885Z,13.50
2018-11-06T17:27:45.182Z,13.40
2018-11-06T17:30:15.828Z,13.10
2018-11-06T17:35:15.738Z,12.80
2018-11-06T17:40:15.365Z,13.20
2018-11-06T17:42:44.601Z,13.00
2018-11-06T17:50:17.553Z,12.80
2018-11-06T18:00:17.257Z,13.30
2018-11-06T18:02:46.474Z,12.80
2018-11-06T18:10:16.081Z,12.50
2018-11-06T18:12:45.402Z,12.30
2018-11-06T18:17:43.818Z,12.50
2018-11-06T18:20:13.997Z,12.70
2018-11-06T18:22:43.801Z,12.10
2018-11-06T18:25:13.551Z,12.70
2018-11-06T18:27:42.724Z,12.60
2018-11-06T18:30:18.322Z,12.10
2018-11-06T18:32:47.413Z,12.50
2018-11-06T18:40:17.641Z,12.10
2018-11-06T18:42:47.518Z,11.90
2018-11-06T18:47:45.693Z,12.20
2018-11-06T18:52:46.497Z,11.90
2018-11-06T19:00:18.575Z,11.80
2018-11-06T19:02:49.501Z,12.20
2018-11-06T19:05:19.843Z,11.70
2018-11-06T19:15:20.423Z,11.70
2018-11-06T19:17:50.100Z,11.50
2018-11-06T19:30:17.697Z,11.80
2018-11-06T19:32:46.929Z,11.30
2018-11-06T19:35:16.182Z,11.60
2018-11-06T19:37:45.395Z,11.50
2018-11-06T19:40:15.995Z,11.80
2018-11-06T19:57:42.630Z,10.80
2018-11-06T20:00:16.800Z,11.20
2018-11-06T20:02:47.302Z,10.80
2018-11-06T20:12:48.861Z,10.40
2018-11-06T20:20:22.069Z,10.80
2018-11-06T20:22:51.221Z,10.80
2018-11-06T20:35:19.647Z,10.30
2018-11-06T20:37:48.745Z,10.70
2018-11-06T20:40:19.268Z,10.60
2018-11-06T20:42:48.646Z,10.90
2018-11-06T20:47:57.437Z,10.60
2018-11-06T20:55:24.483Z,10.40
2018-11-06T21:00:25.135Z,10.80
2018-11-06T21:02:55.154Z,10.90
2018-11-06T21:05:24.351Z,10.60
2018-11-06T21:12:52.732Z,10.80
2018-11-06T21:20:20.778Z,10.90
2018-11-06T21:30:19.003Z,10.50
2018-11-06T21:37:47.465Z,10.10
2018-11-06T21:42:47.543Z,9.90
2018-11-06T22:00:16.533Z,9.80
2018-11-06T22:05:15.798Z,10.20
2018-11-06T22:10:16.249Z,10.00
2018-11-06T22:15:15.971Z,9.80
2018-11-06T22:27:43.093Z,9.50
2018-11-06T22:30:14.218Z,9.00
2018-11-06T22:35:14.372Z,9.50
2018-11-06T22:40:13.769Z,9.20
2018-11-06T22:42:42.861Z,9.40
2018-11-06T22:50:15.076Z,9.60
2018-11-06T22:55:13.757Z,9.20
2018-11-06T22:57:43.165Z,9.20
2018-11-06T23:02:45.666Z,9.40
2018-11-06T23:05:15.171Z,9.30
2018-11-06T23:15:16.254Z,9.50
2018-11-06T23:17:45.366Z,8.70
2018-11-06T23:22:43.382Z,8.70
2018-11-06T23:27:41.945Z,8.80
2018-11-06T23:30:13.807Z,10.00
2018-11-06T23:35:11.790Z,8.80
2018-11-06T23:40:10.598Z,9.20
2018-11-06T23:42:39.958Z,9.30
2018-11-06T23:55:06.548Z,8.90
